createdAt,value
2024-05-09T00:01:11.576Z,3.20
2024-05-09T00:02:13.762Z,3.25
2024-05-09T00:03:15.129Z,2.95
2024-05-09T00:04:18.574Z,3.22
2024-05-09T00:05:20.872Z,3.30
2024-05-09T00:06:22.057Z,3.05
2024-05-09T00:07:24.005Z,3.47
2024-05-09T00:08:24.987Z,3.07
2024-05-09T00:09:26.954Z,2.90
2024-05-09T00:10:35.311Z,2.93
2024-05-09T00:11:40.097Z,2.78
2024-05-09T00:12:41.176Z,3.02
2024-05-09T00:13:43.150Z,2.92
2024-05-09T00:14:44.131Z,3.05
2024-05-09T00:15:46.123Z,2.67
2024-05-09T00:16:48.483Z,2.95
2024-05-09T00:17:50.751Z,2.60
2024-05-09T00:18:52.049Z,3.10
2024-05-09T00:19:55.545Z,2.93
2024-05-09T00:20:56.602Z,2.78
2024-05-09T00:21:58.663Z,2.58
2024-05-09T00:22:59.920Z,2.63
2024-05-09T00:24:03.197Z,2.65
2024-05-09T00:25:05.003Z,2.77
2024-05-09T00:26:05.979Z,2.58
2024-05-09T00:27:08.457Z,2.78
2024-05-09T00:28:10.387Z,3.13
2024-05-09T00:29:12.400Z,2.95
2024-05-09T00:30:21.005Z,2.73
2024-05-09T00:31:26.490Z,2.88
2024-05-09T00:32:27.652Z,3.08
2024-05-09T00:33:29.909Z,2.68
2024-05-09T00:34:31.276Z,2.63
2024-05-09T00:35:35.014Z,2.62
2024-05-09T00:36:36.158Z,3.10
2024-05-09T00:37:38.089Z,2.88
2024-05-09T00:38:39.178Z,2.95
2024-05-09T00:39:41.110Z,3.03
2024-05-09T00:40:43.517Z,2.70
2024-05-09T00:41:45.890Z,2.87
2024-05-09T00:42:46.910Z,2.98
2024-05-09T00:43:49.021Z,2.75
2024-05-09T00:44:49.993Z,2.72
2024-05-09T00:45:53.797Z,2.82
2024-05-09T00:46:56.412Z,2.72
2024-05-09T00:47:59.763Z,2.65
2024-05-09T00:49:01.097Z,2.90
2024-05-09T00:50:05.558Z,2.73
2024-05-09T00:51:09.999Z,2.53
2024-05-09T00:52:12.013Z,2.67
2024-05-09T00:53:14.501Z,2.65
2024-05-09T00:54:18.683Z,2.70
2024-05-09T00:55:19.931Z,2.68
2024-05-09T00:56:22.263Z,2.63
2024-05-09T00:57:24.899Z,2.50
2024-05-09T00:58:28.678Z,2.88
2024-05-09T00:59:31.306Z,2.88
2024-05-09T01:00:38.721Z,2.82
2024-05-09T01:01:42.269Z,2.77
2024-05-09T01:02:44.462Z,2.92
2024-05-09T01:03:47.961Z,3.00
2024-05-09T01:04:52.181Z,2.73
2024-05-09T01:05:53.371Z,2.88
2024-05-09T01:06:56.744Z,3.00
2024-05-09T01:07:57.804Z,2.87
2024-05-09T01:08:59.075Z,2.87
2024-05-09T01:10:01.096Z,2.68
2024-05-09T01:11:02.378Z,2.77
2024-05-09T01:12:05.349Z,2.62
2024-05-09T01:13:06.966Z,2.78
2024-05-09T01:14:09.312Z,2.82
2024-05-09T01:15:10.370Z,2.88
2024-05-09T01:16:13.394Z,2.72
2024-05-09T01:17:14.620Z,2.95
2024-05-09T01:18:16.957Z,2.67
2024-05-09T01:19:22.370Z,2.40
2024-05-09T01:20:32.144Z,2.87
2024-05-09T01:21:42.684Z,2.52
2024-05-09T01:22:47.375Z,2.90
2024-05-09T01:23:49.761Z,2.85
2024-05-09T01:24:50.920Z,2.60
2024-05-09T01:25:52.950Z,2.77
2024-05-09T01:26:53.982Z,2.75
2024-05-09T01:27:55.941Z,2.78
2024-05-09T01:28:56.996Z,2.68
2024-05-09T01:29:59.051Z,2.77
2024-05-09T01:31:00.044Z,2.98
2024-05-09T01:32:03.377Z,2.87
2024-05-09T01:33:07.358Z,2.75
2024-05-09T01:34:10.252Z,2.87
2024-05-09T01:35:12.369Z,2.77
2024-05-09T01:36:13.562Z,2.88
2024-05-09T01:37:15.556Z,2.78
2024-05-09T01:38:18.696Z,2.88
2024-05-09T01:39:22.007Z,2.92
2024-05-09T01:40:33.259Z,2.93
2024-05-09T01:41:39.701Z,3.07
2024-05-09T01:42:40.934Z,2.82
2024-05-09T01:43:42.993Z,2.92
2024-05-09T01:44:44.046Z,3.32
2024-05-09T01:45:46.009Z,3.43
2024-05-09T01:46:47.110Z,3.60
2024-05-09T01:47:49.243Z,3.77
2024-05-09T01:48:50.422Z,3.68
2024-05-09T01:49:52.520Z,3.27
2024-05-09T01:50:53.616Z,3.18
2024-05-09T01:51:55.558Z,3.48
2024-05-09T01:52:56.650Z,3.28
2024-05-09T01:53:58.689Z,3.17
2024-05-09T01:55:03.406Z,3.28
2024-05-09T01:56:08.188Z,4.02
2024-05-09T01:57:09.365Z,3.75
2024-05-09T01:58:11.392Z,3.63
2024-05-09T01:59:12.426Z,3.67
2024-05-09T02:00:22.152Z,3.53
2024-05-09T02:01:30.642Z,3.55
2024-05-09T02:02:52.550Z,3.62
2024-05-09T02:03:53.719Z,4.15
2024-05-09T02:04:55.918Z,3.87
2024-05-09T02:05:57.172Z,4.23
2024-05-09T02:06:59.154Z,4.33
2024-05-09T02:08:00.230Z,4.37
2024-05-09T02:09:02.226Z,4.42
2024-05-09T02:10:10.758Z,4.58
2024-05-09T02:11:18.185Z,4.18
2024-05-09T02:12:19.337Z,4.65
2024-05-09T02:13:21.378Z,4.62
2024-05-09T02:14:22.450Z,4.67
2024-05-09T02:15:24.379Z,4.57
2024-05-09T02:16:25.337Z,4.90
2024-05-09T02:17:27.541Z,4.47
2024-05-09T02:18:28.746Z,4.80
2024-05-09T02:19:30.802Z,4.52
2024-05-09T02:20:36.223Z,4.68
2024-05-09T02:21:39.326Z,4.90
2024-05-09T02:22:42.491Z,5.05
2024-05-09T02:23:44.862Z,5.63
2024-05-09T02:24:45.912Z,5.47
2024-05-09T02:25:49.298Z,5.70
2024-05-09T02:26:50.358Z,5.95
2024-05-09T02:27:52.353Z,5.47
2024-05-09T02:28:53.400Z,6.17
2024-05-09T02:29:55.390Z,5.62
2024-05-09T02:30:56.390Z,5.73
2024-05-09T02:31:58.416Z,5.65
2024-05-09T02:32:59.546Z,5.38
2024-05-09T02:34:00.987Z,5.52
2024-05-09T02:35:03.341Z,5.57
2024-05-09T02:36:05.930Z,5.42
2024-05-09T02:37:06.980Z,5.53
2024-05-09T02:38:09.453Z,5.80
2024-05-09T02:39:10.594Z,5.75
2024-05-09T02:40:14.677Z,6.20
2024-05-09T02:41:20.488Z,5.87
2024-05-09T02:42:22.410Z,6.07
2024-05-09T02:43:23.423Z,5.95
2024-05-09T02:44:24.563Z,6.35
2024-05-09T02:45:25.676Z,6.12
2024-05-09T02:46:27.671Z,6.62
2024-05-09T02:47:28.892Z,6.57
2024-05-09T02:48:29.979Z,7.12
2024-05-09T02:49:31.195Z,7.05
2024-05-09T02:50:38.320Z,6.35
2024-05-09T02:51:40.940Z,6.32
2024-05-09T02:52:42.080Z,6.13
2024-05-09T02:53:43.067Z,6.38
2024-05-09T02:54:45.250Z,6.57
2024-05-09T02:55:46.420Z,6.58
2024-05-09T02:56:48.824Z,6.52
2024-05-09T02:57:50.802Z,6.57
2024-05-09T02:58:51.859Z,6.72
2024-05-09T02:59:52.895Z,6.90
2024-05-09T03:00:53.940Z,7.08
2024-05-09T03:01:56.001Z,7.42
2024-05-09T03:02:57.191Z,7.73
2024-05-09T03:03:58.374Z,8.28
2024-05-09T03:04:59.489Z,8.80
2024-05-09T03:06:01.753Z,9.50
2024-05-09T03:07:02.925Z,9.30
2024-05-09T03:08:04.885Z,9.82
2024-05-09T03:09:08.514Z,10.18
2024-05-09T03:10:18.314Z,10.07
2024-05-09T03:11:24.096Z,9.77
2024-05-09T03:12:26.837Z,9.93
2024-05-09T03:13:28.858Z,9.92
2024-05-09T03:14:30.022Z,10.43
2024-05-09T03:15:31.736Z,9.40
2024-05-09T03:16:36.570Z,9.93
2024-05-09T03:17:40.328Z,9.72
2024-05-09T03:18:41.489Z,9.93
2024-05-09T03:19:42.570Z,9.88
2024-05-09T03:20:43.994Z,9.57
2024-05-09T03:21:46.206Z,8.95
2024-05-09T03:22:47.292Z,8.67
2024-05-09T03:23:48.254Z,8.77
2024-05-09T03:24:49.447Z,8.90
2024-05-09T03:25:53.097Z,8.62
2024-05-09T03:26:54.138Z,7.85
2024-05-09T03:27:56.574Z,7.85
2024-05-09T03:28:58.724Z,7.47
2024-05-09T03:29:59.739Z,7.55
2024-05-09T03:31:00.881Z,6.93
2024-05-09T03:32:03.223Z,7.65
2024-05-09T03:33:04.915Z,7.13
2024-05-09T03:34:06.189Z,7.28
2024-05-09T03:35:07.327Z,7.28
2024-05-09T03:36:11.294Z,6.92
2024-05-09T03:37:13.706Z,7.07
2024-05-09T03:38:14.897Z,6.72
2024-05-09T03:39:16.065Z,6.17
2024-05-09T03:40:23.495Z,6.45
2024-05-09T03:41:27.328Z,6.22
2024-05-09T03:42:29.260Z,6.37
2024-05-09T03:43:31.574Z,6.07
2024-05-09T03:44:32.794Z,6.25
2024-05-09T03:45:34.886Z,6.00
2024-05-09T03:46:36.761Z,5.90
2024-05-09T03:47:38.065Z,6.00
2024-05-09T03:48:39.300Z,6.12
2024-05-09T03:49:41.299Z,6.17
2024-05-09T03:50:42.492Z,5.82
2024-05-09T03:51:43.564Z,6.02
2024-05-09T03:52:44.612Z,5.47
2024-05-09T03:53:46.569Z,5.42
2024-05-09T03:54:47.539Z,5.85
2024-05-09T03:55:48.605Z,5.62
2024-05-09T03:56:49.693Z,5.48
2024-05-09T03:57:51.647Z,5.65
2024-05-09T03:58:54.222Z,5.12
2024-05-09T03:59:55.170Z,5.32
2024-05-09T04:00:57.228Z,5.40
2024-05-09T04:01:58.438Z,5.48
2024-05-09T04:02:59.809Z,5.47
2024-05-09T04:04:00.922Z,5.20
2024-05-09T04:05:03.100Z,5.20
2024-05-09T04:06:04.451Z,5.20
2024-05-09T04:07:05.486Z,5.33
2024-05-09T04:08:06.897Z,5.35
2024-05-09T04:09:08.916Z,5.13
2024-05-09T04:10:20.562Z,5.23
2024-05-09T04:11:25.713Z,5.77
2024-05-09T04:12:26.848Z,5.58
2024-05-09T04:13:28.761Z,5.45
2024-05-09T04:14:31.279Z,5.45
2024-05-09T04:15:32.730Z,5.12
2024-05-09T04:16:34.836Z,5.45
2024-05-09T04:17:36.154Z,5.17
2024-05-09T04:18:37.402Z,5.37
2024-05-09T04:19:38.557Z,5.60
2024-05-09T04:20:41.443Z,5.68
2024-05-09T04:21:42.596Z,5.53
2024-05-09T04:22:43.717Z,5.12
2024-05-09T04:23:45.742Z,5.67
2024-05-09T04:24:47.398Z,5.07
2024-05-09T04:25:48.450Z,5.43
2024-05-09T04:26:49.716Z,5.50
2024-05-09T04:27:54.498Z,4.98
2024-05-09T04:28:55.534Z,5.18
2024-05-09T04:29:57.837Z,5.50
2024-05-09T04:30:58.858Z,5.07
2024-05-09T04:32:00.895Z,4.95
2024-05-09T04:33:02.253Z,4.73
2024-05-09T04:34:03.673Z,5.03
2024-05-09T04:35:05.320Z,4.87
2024-05-09T04:36:07.593Z,4.62
2024-05-09T04:37:08.609Z,4.87
2024-05-09T04:38:10.164Z,4.65
2024-05-09T04:39:11.261Z,4.30
2024-05-09T04:40:24.095Z,4.58
2024-05-09T04:41:32.384Z,4.27
2024-05-09T04:42:33.440Z,4.32
2024-05-09T04:43:35.366Z,4.33
2024-05-09T04:44:36.439Z,4.55
2024-05-09T04:45:38.802Z,4.20
2024-05-09T04:46:39.732Z,4.13
2024-05-09T04:47:41.885Z,4.55
2024-05-09T04:48:43.245Z,4.07
2024-05-09T04:49:45.407Z,4.02
2024-05-09T04:50:46.507Z,4.03
2024-05-09T04:51:48.520Z,4.25
2024-05-09T04:52:49.543Z,4.37
2024-05-09T04:53:50.582Z,4.25
2024-05-09T04:54:51.574Z,4.53
2024-05-09T04:55:53.608Z,4.70
2024-05-09T04:56:54.629Z,4.37
2024-05-09T04:57:55.636Z,4.25
2024-05-09T04:58:57.667Z,4.28
2024-05-09T04:59:59.479Z,4.52
2024-05-09T05:01:01.914Z,3.85
2024-05-09T05:02:04.329Z,4.25
2024-05-09T05:03:08.262Z,3.97
2024-05-09T05:04:10.496Z,4.40
2024-05-09T05:05:12.200Z,4.53
2024-05-09T05:06:14.291Z,4.02
2024-05-09T05:07:15.310Z,4.20
2024-05-09T05:08:18.073Z,4.10
2024-05-09T05:09:21.003Z,4.23
2024-05-09T05:10:29.507Z,4.40
2024-05-09T05:11:36.444Z,4.10
2024-05-09T05:12:56.065Z,4.25
2024-05-09T05:13:58.104Z,4.32
2024-05-09T05:14:59.162Z,4.28
2024-05-09T05:16:01.484Z,3.92
2024-05-09T05:17:03.651Z,4.17
2024-05-09T05:18:05.010Z,4.15
2024-05-09T05:19:10.150Z,4.03
2024-05-09T05:20:15.381Z,4.05
2024-05-09T05:21:24.081Z,3.93
2024-05-09T05:22:25.174Z,3.88
2024-05-09T05:23:26.291Z,4.17
2024-05-09T05:24:27.374Z,4.28
2024-05-09T05:25:29.357Z,4.17
2024-05-09T05:26:30.762Z,4.13
2024-05-09T05:27:31.843Z,3.93
2024-05-09T05:28:33.756Z,3.88
2024-05-09T05:29:35.040Z,4.05
2024-05-09T05:30:37.292Z,3.82
2024-05-09T05:31:39.688Z,3.78
2024-05-09T05:32:41.851Z,3.97
2024-05-09T05:33:43.081Z,4.02
2024-05-09T05:34:44.209Z,4.12
2024-05-09T05:35:45.410Z,3.97
2024-05-09T05:36:47.416Z,3.53
2024-05-09T05:37:48.501Z,3.83
2024-05-09T05:38:49.800Z,3.82
2024-05-09T05:39:50.888Z,3.72
2024-05-09T05:40:52.009Z,3.37
2024-05-09T05:41:54.010Z,3.30
2024-05-09T05:42:54.987Z,3.27
2024-05-09T05:43:56.079Z,3.38
2024-05-09T05:44:57.295Z,3.30
2024-05-09T05:45:59.307Z,3.37
2024-05-09T05:47:01.721Z,3.20
2024-05-09T05:48:04.283Z,2.80
2024-05-09T05:49:05.808Z,3.17
2024-05-09T05:50:20.459Z,3.00
2024-05-09T05:51:27.946Z,2.97
2024-05-09T05:52:28.978Z,3.15
2024-05-09T05:53:30.978Z,2.98
2024-05-09T05:54:32.031Z,2.97
2024-05-09T05:55:33.086Z,3.00
2024-05-09T05:56:34.286Z,3.70
2024-05-09T05:57:36.338Z,3.47
2024-05-09T05:58:37.490Z,3.42
2024-05-09T05:59:38.568Z,3.32
2024-05-09T06:00:41.196Z,2.95
2024-05-09T06:01:44.150Z,3.17
2024-05-09T06:02:46.858Z,2.78
2024-05-09T06:03:48.100Z,2.92
2024-05-09T06:04:49.374Z,3.42
2024-05-09T06:05:51.553Z,3.30
2024-05-09T06:06:52.666Z,2.92
2024-05-09T06:07:53.691Z,3.00
2024-05-09T06:08:54.872Z,3.17
2024-05-09T06:09:55.991Z,3.43
2024-05-09T06:10:58.143Z,3.40
2024-05-09T06:11:59.288Z,2.75
2024-05-09T06:13:00.398Z,3.15
2024-05-09T06:14:04.275Z,3.53
2024-05-09T06:15:06.040Z,3.38
2024-05-09T06:16:07.244Z,3.02
2024-05-09T06:17:08.388Z,3.15
2024-05-09T06:18:12.768Z,2.95
2024-05-09T06:19:14.274Z,3.07
2024-05-09T06:20:20.815Z,3.10
2024-05-09T06:21:29.558Z,3.10
2024-05-09T06:22:30.616Z,3.20
2024-05-09T06:23:31.868Z,2.97
2024-05-09T06:24:32.941Z,3.22
2024-05-09T06:25:35.306Z,3.23
2024-05-09T06:26:36.565Z,3.52
2024-05-09T06:27:38.688Z,3.32
2024-05-09T06:28:39.782Z,3.07
2024-05-09T06:29:41.852Z,2.88
2024-05-09T06:30:43.482Z,3.10
2024-05-09T06:31:45.558Z,3.30
2024-05-09T06:32:47.726Z,3.08
2024-05-09T06:33:50.385Z,2.85
2024-05-09T06:34:51.594Z,3.03
2024-05-09T06:35:58.135Z,3.03
2024-05-09T06:36:59.198Z,2.98
2024-05-09T06:38:00.466Z,3.10
2024-05-09T06:39:01.555Z,3.13
2024-05-09T06:40:03.180Z,2.98
2024-05-09T06:41:06.197Z,3.18
2024-05-09T06:42:07.268Z,2.87
2024-05-09T06:43:12.413Z,2.87
2024-05-09T06:44:13.591Z,2.85
2024-05-09T06:45:15.930Z,2.90
2024-05-09T06:46:16.999Z,2.73
2024-05-09T06:47:18.119Z,2.65
2024-05-09T06:48:20.461Z,2.77
2024-05-09T06:49:27.961Z,2.57
2024-05-09T06:50:35.742Z,2.85
2024-05-09T06:51:39.206Z,2.90
2024-05-09T06:52:41.205Z,2.87
2024-05-09T06:53:42.291Z,2.93
2024-05-09T06:54:43.311Z,2.93
2024-05-09T06:55:45.477Z,2.52
2024-05-09T06:56:46.587Z,3.08
2024-05-09T06:57:47.715Z,2.88
2024-05-09T06:58:49.807Z,3.12
2024-05-09T06:59:50.870Z,2.90
2024-05-09T07:00:52.057Z,2.97
2024-05-09T07:01:53.225Z,2.63
2024-05-09T07:02:55.407Z,2.87
2024-05-09T07:03:56.765Z,2.72
2024-05-09T07:04:59.702Z,2.73
2024-05-09T07:06:01.093Z,2.80
2024-05-09T07:07:05.411Z,2.80
2024-05-09T07:08:06.904Z,3.03
2024-05-09T07:09:08.365Z,2.83
2024-05-09T07:10:21.540Z,3.17
2024-05-09T07:11:26.821Z,3.25
2024-05-09T07:12:28.080Z,3.10
2024-05-09T07:13:29.243Z,3.03
2024-05-09T07:14:30.397Z,3.18
2024-05-09T07:15:32.510Z,3.10
2024-05-09T07:16:33.594Z,3.17
2024-05-09T07:17:34.809Z,2.83
2024-05-09T07:18:37.248Z,2.60
2024-05-09T07:19:38.921Z,2.73
2024-05-09T07:20:42.045Z,2.63
2024-05-09T07:21:43.421Z,2.68
2024-05-09T07:22:45.528Z,2.67
2024-05-09T07:23:47.445Z,2.85
2024-05-09T07:24:48.595Z,2.98
2024-05-09T07:25:49.863Z,2.97
2024-05-09T07:26:51.919Z,2.62
2024-05-09T07:27:53.207Z,2.77
2024-05-09T07:28:54.566Z,2.87
2024-05-09T07:29:56.626Z,3.65
2024-05-09T07:30:58.671Z,4.32
2024-05-09T07:31:59.828Z,3.40
2024-05-09T07:33:01.633Z,3.03
2024-05-09T07:34:03.764Z,2.87
2024-05-09T07:35:06.161Z,3.00
2024-05-09T07:36:08.606Z,2.52
2024-05-09T07:37:11.515Z,2.43
2024-05-09T07:38:12.717Z,2.93
2024-05-09T07:39:14.780Z,2.87
2024-05-09T07:40:24.875Z,2.87
2024-05-09T07:41:33.772Z,2.63
2024-05-09T07:42:34.894Z,2.65
2024-05-09T07:43:36.932Z,3.00
2024-05-09T07:44:38.048Z,2.75
2024-05-09T07:45:48.726Z,2.68
2024-05-09T07:48:13.771Z,2.70
2024-05-09T07:53:34.567Z,2.85
2024-05-09T07:54:10.111Z,2.83
2024-05-09T07:55:12.607Z,2.98
2024-05-09T07:56:14.286Z,3.02
2024-05-09T07:57:15.652Z,2.63
2024-05-09T07:58:17.737Z,2.58
2024-05-09T07:59:18.857Z,2.45
2024-05-09T08:00:23.747Z,2.53
2024-05-09T08:01:31.767Z,2.98
2024-05-09T08:02:33.267Z,2.98
2024-05-09T08:03:34.703Z,2.72
2024-05-09T08:04:36.020Z,2.73
2024-05-09T08:05:37.332Z,3.05
2024-05-09T08:06:41.450Z,2.68
2024-05-09T08:07:44.212Z,2.45
2024-05-09T08:08:45.578Z,2.63
2024-05-09T08:09:47.727Z,2.73
2024-05-09T08:10:49.252Z,2.47
2024-05-09T08:11:51.540Z,2.18
2024-05-09T08:12:52.913Z,2.62
2024-05-09T08:13:54.950Z,2.37
2024-05-09T08:14:56.174Z,2.40
2024-05-09T08:15:57.625Z,2.45
2024-05-09T08:16:59.722Z,2.52
2024-05-09T08:18:01.072Z,2.67
2024-05-09T08:19:02.337Z,2.32
2024-05-09T08:20:05.691Z,2.50
2024-05-09T08:21:06.843Z,2.37
2024-05-09T08:22:09.597Z,2.25
2024-05-09T08:23:11.793Z,2.38
2024-05-09T08:24:12.839Z,2.20
2024-05-09T08:25:14.380Z,2.15
2024-05-09T08:26:16.622Z,2.57
2024-05-09T08:27:17.792Z,2.55
2024-05-09T08:28:19.013Z,2.57
2024-05-09T08:29:20.188Z,2.53
2024-05-09T08:30:29.723Z,2.25
2024-05-09T08:31:37.264Z,2.67
2024-05-09T08:32:38.910Z,2.60
2024-05-09T08:33:44.148Z,2.58
2024-05-09T08:34:45.496Z,2.27
2024-05-09T08:35:46.632Z,2.65
2024-05-09T08:36:48.715Z,2.48
2024-05-09T08:37:52.253Z,2.28
2024-05-09T08:38:53.644Z,2.08
2024-05-09T08:39:54.894Z,2.33
2024-05-09T08:40:56.998Z,2.33
2024-05-09T08:42:01.016Z,2.32
2024-05-09T08:43:06.161Z,2.33
2024-05-09T08:44:07.383Z,2.23
2024-05-09T08:45:09.629Z,2.40
2024-05-09T08:46:12.133Z,2.48
2024-05-09T08:47:13.858Z,2.78
2024-05-09T08:48:16.762Z,2.78
2024-05-09T08:49:18.104Z,2.48
2024-05-09T08:50:29.235Z,2.53
2024-05-09T08:51:37.541Z,2.42
2024-05-09T08:52:39.841Z,2.35
2024-05-09T08:53:42.323Z,2.72
2024-05-09T08:54:43.941Z,2.40
2024-05-09T08:55:46.834Z,2.30
2024-05-09T08:56:49.448Z,2.20
2024-05-09T08:57:52.228Z,2.13
2024-05-09T08:58:55.846Z,2.15
2024-05-09T09:00:04.836Z,2.03
2024-05-09T09:01:07.833Z,2.12
2024-05-09T09:02:13.092Z,2.10
2024-05-09T09:03:18.017Z,2.15
2024-05-09T09:04:21.575Z,2.35
2024-05-09T09:05:27.997Z,2.67
2024-05-09T09:06:33.278Z,2.67
2024-05-09T09:07:37.327Z,2.37
2024-05-09T09:08:38.644Z,2.53
2024-05-09T09:09:44.604Z,2.38
2024-05-09T09:10:47.589Z,2.35
2024-05-09T09:11:48.994Z,2.48
2024-05-09T09:12:56.616Z,2.32
2024-05-09T09:13:57.721Z,2.37
2024-05-09T09:14:59.758Z,2.70
2024-05-09T09:16:01.709Z,2.45
2024-05-09T09:17:11.536Z,2.28
2024-05-09T09:18:14.241Z,2.65
2024-05-09T09:19:15.842Z,2.73
2024-05-09T09:20:23.237Z,2.60
2024-05-09T09:21:31.223Z,2.52
2024-05-09T09:22:33.190Z,2.13
2024-05-09T09:23:34.319Z,2.10
2024-05-09T09:24:36.547Z,2.32
2024-05-09T09:25:39.637Z,2.27
2024-05-09T09:26:40.723Z,2.07
2024-05-09T09:27:43.440Z,2.00
2024-05-09T09:28:44.839Z,1.87
2024-05-09T09:29:45.946Z,2.12
2024-05-09T09:30:48.046Z,1.88
2024-05-09T09:31:57.153Z,1.73
2024-05-09T09:32:58.405Z,2.05
2024-05-09T09:34:05.934Z,2.07
2024-05-09T09:35:08.045Z,2.10
2024-05-09T09:36:12.559Z,2.03
2024-05-09T09:37:18.024Z,2.02
2024-05-09T09:38:22.101Z,2.10
2024-05-09T09:39:27.204Z,2.00
2024-05-09T09:40:35.107Z,1.93
2024-05-09T09:41:43.262Z,2.12
2024-05-09T09:42:51.346Z,2.38
2024-05-09T09:43:52.667Z,2.18
2024-05-09T09:45:02.174Z,2.33
2024-05-09T09:46:11.727Z,2.28
2024-05-09T09:47:14.949Z,1.87
2024-05-09T09:48:16.638Z,1.97
2024-05-09T09:49:18.548Z,2.37
2024-05-09T09:50:27.732Z,2.33
2024-05-09T09:51:35.773Z,2.08
2024-05-09T09:52:37.382Z,2.07
2024-05-09T09:53:39.783Z,1.90
2024-05-09T09:54:43.192Z,1.90
2024-05-09T09:55:45.317Z,2.00
2024-05-09T09:56:48.457Z,2.28
2024-05-09T09:57:50.650Z,2.28
2024-05-09T09:58:52.237Z,2.02
2024-05-09T09:59:54.572Z,2.02
2024-05-09T10:00:56.769Z,2.17
2024-05-09T10:01:58.085Z,2.20
2024-05-09T10:02:59.482Z,1.87
2024-05-09T10:04:03.072Z,2.12
2024-05-09T10:05:05.296Z,2.23
2024-05-09T10:06:07.653Z,2.28
2024-05-09T10:07:10.404Z,2.02
2024-05-09T10:08:13.050Z,2.08
2024-05-09T10:09:15.438Z,1.98
2024-05-09T10:10:27.313Z,1.83
2024-05-09T10:11:39.533Z,1.90
2024-05-09T10:12:57.455Z,1.97
2024-05-09T10:13:58.619Z,1.82
2024-05-09T10:15:06.529Z,1.75
2024-05-09T10:16:10.171Z,1.65
2024-05-09T10:17:11.446Z,2.00
2024-05-09T10:18:12.923Z,1.72
2024-05-09T10:19:24.443Z,1.72
2024-05-09T10:20:30.889Z,1.77
2024-05-09T10:21:34.637Z,2.13
2024-05-09T10:22:48.009Z,1.90
2024-05-09T10:23:56.401Z,1.80
2024-05-09T10:25:05.346Z,1.75
2024-05-09T10:26:06.760Z,1.90
2024-05-09T10:27:07.980Z,1.82
2024-05-09T10:28:11.407Z,2.23
2024-05-09T10:29:14.526Z,1.93
2024-05-09T10:30:26.153Z,2.03
2024-05-09T10:31:38.125Z,1.88
2024-05-09T10:32:40.323Z,1.82
2024-05-09T10:33:46.939Z,2.10
2024-05-09T10:35:05.299Z,2.10
2024-05-09T10:36:12.895Z,1.98
2024-05-09T10:37:15.381Z,1.87
2024-05-09T10:38:17.232Z,1.85
2024-05-09T10:39:19.582Z,2.02
2024-05-09T10:41:25.211Z,2.02
2024-05-09T10:42:27.107Z,2.15
2024-05-09T10:43:30.363Z,1.95
2024-05-09T10:44:37.601Z,2.07
2024-05-09T10:45:38.940Z,1.93
2024-05-09T10:46:40.467Z,2.08
2024-05-09T10:47:43.206Z,2.10
2024-05-09T10:48:44.977Z,2.17
2024-05-09T10:49:47.490Z,2.15
2024-05-09T10:50:48.703Z,2.07
2024-05-09T10:51:52.154Z,2.42
2024-05-09T10:52:53.270Z,2.08
2024-05-09T10:53:55.842Z,2.33
2024-05-09T10:54:58.263Z,2.78
2024-05-09T10:56:00.487Z,2.43
2024-05-09T10:57:01.667Z,2.65
2024-05-09T10:58:03.067Z,3.12
2024-05-09T10:59:06.478Z,2.50
2024-05-09T11:00:15.580Z,2.38
2024-05-09T11:01:20.300Z,2.27
2024-05-09T11:02:22.762Z,2.43
2024-05-09T11:03:24.831Z,3.52
2024-05-09T11:04:26.992Z,2.95
2024-05-09T11:05:28.741Z,2.67
2024-05-09T11:06:33.830Z,2.97
2024-05-09T11:07:35.028Z,3.68
2024-05-09T11:08:36.641Z,2.08
2024-05-09T11:09:38.549Z,2.25
2024-05-09T11:10:40.944Z,3.13
2024-05-09T11:11:42.214Z,2.50
2024-05-09T11:12:44.711Z,2.33
2024-05-09T11:13:45.851Z,2.37
2024-05-09T11:14:55.327Z,2.20
2024-05-09T11:15:56.969Z,2.67
2024-05-09T11:16:58.777Z,3.60
2024-05-09T11:17:59.959Z,2.83
2024-05-09T11:19:02.375Z,2.48
2024-05-09T11:20:10.487Z,2.58
2024-05-09T11:21:14.689Z,2.98
2024-05-09T11:22:15.872Z,2.37
2024-05-09T11:23:18.162Z,2.50
2024-05-09T11:24:19.271Z,2.23
2024-05-09T11:25:20.463Z,2.18
2024-05-09T11:26:23.967Z,2.18
2024-05-09T11:27:26.080Z,2.20
2024-05-09T11:28:27.508Z,1.88
2024-05-09T11:29:37.019Z,2.47
2024-05-09T11:30:40.498Z,2.03
2024-05-09T11:31:45.240Z,2.37
2024-05-09T11:32:46.459Z,2.32
2024-05-09T11:33:47.888Z,2.07
2024-05-09T11:34:49.998Z,2.37
2024-05-09T11:35:51.102Z,2.53
2024-05-09T11:36:52.235Z,2.27
2024-05-09T11:37:53.377Z,2.45
2024-05-09T11:38:55.700Z,2.38
2024-05-09T11:39:56.901Z,2.33
2024-05-09T11:41:01.250Z,2.20
2024-05-09T11:42:02.694Z,2.03
2024-05-09T11:43:04.975Z,2.15
2024-05-09T11:44:07.262Z,2.12
2024-05-09T11:45:08.429Z,1.70
2024-05-09T11:46:11.112Z,2.30
2024-05-09T11:47:13.260Z,2.13
2024-05-09T11:48:14.757Z,2.17
2024-05-09T11:49:16.148Z,2.33
2024-05-09T11:50:26.772Z,2.25
2024-05-09T11:51:32.216Z,1.97
2024-05-09T11:52:33.421Z,1.80
2024-05-09T11:53:34.499Z,1.85
2024-05-09T11:54:36.627Z,2.10
2024-05-09T11:55:37.772Z,1.87
2024-05-09T11:56:38.960Z,1.67
2024-05-09T11:57:40.052Z,1.90
2024-05-09T11:58:42.146Z,2.20
2024-05-09T11:59:43.276Z,1.97
2024-05-09T12:00:44.572Z,1.82
2024-05-09T12:01:47.196Z,1.77
2024-05-09T12:02:51.420Z,2.18
2024-05-09T12:03:53.581Z,2.23
2024-05-09T12:04:54.982Z,1.97
2024-05-09T12:05:57.482Z,2.05
2024-05-09T12:06:58.671Z,1.90
2024-05-09T12:07:59.965Z,2.37
2024-05-09T12:09:01.298Z,2.35
2024-05-09T12:10:03.489Z,2.37
2024-05-09T12:11:06.810Z,2.40
2024-05-09T12:12:08.112Z,2.68
2024-05-09T12:13:09.337Z,2.47
2024-05-09T12:14:11.632Z,2.50
2024-05-09T12:15:12.946Z,2.45
2024-05-09T12:16:14.163Z,2.30
2024-05-09T12:17:19.755Z,2.17
2024-05-09T12:18:22.046Z,2.02
2024-05-09T12:19:23.349Z,2.52
2024-05-09T12:20:32.391Z,2.40
2024-05-09T12:21:38.627Z,2.33
2024-05-09T12:22:39.714Z,2.37
2024-05-09T12:23:40.947Z,2.80
2024-05-09T12:24:42.118Z,2.43
2024-05-09T12:25:44.418Z,2.27
2024-05-09T12:26:45.799Z,2.32
2024-05-09T12:27:46.883Z,2.45
2024-05-09T12:28:48.905Z,2.33
2024-05-09T12:29:49.980Z,2.62
2024-05-09T12:30:51.267Z,2.20
2024-05-09T12:31:53.459Z,2.22
2024-05-09T12:32:56.101Z,3.07
2024-05-09T12:33:59.126Z,2.83
2024-05-09T12:35:00.330Z,2.50
2024-05-09T12:36:02.362Z,2.37
2024-05-09T12:37:03.931Z,2.12
2024-05-09T12:38:05.175Z,2.18
2024-05-09T12:39:08.562Z,2.32
2024-05-09T12:40:18.695Z,2.47
2024-05-09T12:41:27.626Z,2.33
2024-05-09T12:42:30.529Z,2.23
2024-05-09T12:43:33.993Z,2.42
2024-05-09T12:44:35.206Z,2.62
2024-05-09T12:45:36.449Z,2.65
2024-05-09T12:46:38.579Z,2.38
2024-05-09T12:47:39.791Z,2.47
2024-05-09T12:48:42.412Z,2.27
2024-05-09T12:49:43.869Z,2.32
2024-05-09T12:50:46.129Z,2.40
2024-05-09T12:51:47.372Z,2.45
2024-05-09T12:52:48.485Z,2.73
2024-05-09T12:53:49.625Z,2.17
2024-05-09T12:54:51.700Z,2.15
2024-05-09T12:55:57.012Z,2.58
2024-05-09T12:57:01.559Z,2.23
2024-05-09T12:58:03.941Z,2.15
2024-05-09T12:59:05.113Z,2.47
2024-05-09T13:00:09.336Z,2.15
2024-05-09T13:01:12.713Z,2.23
2024-05-09T13:02:15.295Z,2.42
2024-05-09T13:03:16.801Z,2.25
2024-05-09T13:04:19.475Z,2.35
2024-05-09T13:05:20.864Z,2.43
2024-05-09T13:06:23.076Z,2.23
2024-05-09T13:07:24.882Z,2.37
2024-05-09T13:08:26.212Z,2.32
2024-05-09T13:09:28.411Z,2.15
2024-05-09T13:10:32.691Z,2.03
2024-05-09T13:11:34.758Z,2.20
2024-05-09T13:12:35.970Z,2.10
2024-05-09T13:13:38.073Z,2.00
2024-05-09T13:14:39.220Z,2.18
2024-05-09T13:15:40.547Z,2.02
2024-05-09T13:16:41.906Z,2.25
2024-05-09T13:17:43.276Z,2.12
2024-05-09T13:18:46.033Z,2.18
2024-05-09T13:19:48.832Z,2.13
2024-05-09T13:20:50.192Z,2.43
2024-05-09T13:21:51.640Z,2.50
2024-05-09T13:22:54.159Z,2.22
2024-05-09T13:23:56.816Z,2.17
2024-05-09T13:24:59.322Z,2.08
2024-05-09T13:26:00.877Z,2.40
2024-05-09T13:27:03.380Z,2.53
2024-05-09T13:28:05.447Z,2.38
2024-05-09T13:29:07.191Z,2.12
2024-05-09T13:30:14.805Z,2.38
2024-05-09T13:31:25.857Z,2.02
2024-05-09T13:32:27.409Z,2.17
2024-05-09T13:33:30.847Z,2.18
2024-05-09T13:34:34.224Z,2.07
2024-05-09T13:35:37.111Z,2.15
2024-05-09T13:36:38.597Z,2.25
2024-05-09T13:37:40.122Z,2.27
2024-05-09T13:38:42.528Z,2.28
2024-05-09T13:39:43.936Z,2.55
2024-05-09T13:40:45.750Z,2.75
2024-05-09T13:41:47.129Z,2.58
2024-05-09T13:42:49.203Z,2.40
2024-05-09T13:43:50.281Z,2.18
2024-05-09T13:44:51.345Z,2.37
2024-05-09T13:45:54.381Z,2.12
2024-05-09T13:46:55.633Z,1.62
2024-05-09T13:47:57.826Z,2.42
2024-05-09T13:48:59.067Z,2.60
2024-05-09T13:50:00.277Z,2.22
2024-05-09T13:51:03.881Z,2.08
2024-05-09T13:52:05.136Z,2.08
2024-05-09T13:53:07.767Z,2.00
2024-05-09T13:54:10.750Z,1.92
2024-05-09T13:55:12.335Z,2.02
2024-05-09T13:56:13.552Z,2.00
2024-05-09T13:57:15.519Z,2.18
2024-05-09T13:58:17.729Z,2.00
2024-05-09T13:59:18.871Z,1.87
2024-05-09T14:00:31.940Z,1.88
2024-05-09T14:01:41.911Z,1.78
2024-05-09T14:02:43.178Z,1.80